TimeCST,TemperatureF,Dew PointF,Humidity,Sea Level PressureIn,VisibilityMPH,Wind Direction,Wind SpeedMPH,Gust SpeedMPH,PrecipitationIn,Events,Conditions,WindDirDegrees,DateUTC
12:53 AM,28.0,21.0,75,30.25,10.0,Calm,Calm,-,N/A,,Clear,0,2013-02-02 06:53:00
1:53 AM,28.0,21.0,75,30.23,10.0,Calm,Calm,-,N/A,,Clear,0,2013-02-02 07:53:00
2:53 AM,27.0,21.0,78,30.23,10.0,Calm,Calm,-,N/A,,Clear,0,2013-02-02 08:53:00
3:53 AM,28.0,21.9,78,30.22,10.0,Calm,Calm,-,N/A,,Scattered Clouds,0,2013-02-02 09:53:00
4:53 AM,28.0,23.0,81,30.21,10.0,Calm,Calm,-,N/A,,Scattered Clouds,0,2013-02-02 10:53:00
5:53 AM,28.9,23.0,78,30.22,10.0,Calm,Calm,-,N/A,,Overcast,0,2013-02-02 11:53:00
6:53 AM,28.9,24.1,82,30.22,10.0,Calm,Calm,-,N/A,,Partly Cloudy,0,2013-02-02 12:53:00
7:53 AM,30.0,24.1,79,30.22,10.0,Calm,Calm,-,N/A,,Scattered Clouds,0,2013-02-02 13:53:00
8:53 AM,35.1,25.0,67,30.23,10.0,Calm,Calm,-,N/A,,Clear,0,2013-02-02 14:53:00
9:53 AM,45.0,28.0,52,30.23,10.0,Calm,Calm,-,N/A,,Clear,0,2013-02-02 15:53:00
10:53 AM,52.0,34.0,50,30.22,10.0,Variable,5.8,-,N/A,,Clear,0,2013-02-02 16:53:00
11:53 AM,57.9,33.1,39,30.22,10.0,Variable,6.9,-,N/A,,Clear,0,2013-02-02 17:53:00
12:53 PM,59.0,30.9,35,30.20,10.0,NNW,9.2,-,N/A,,Clear,330,2013-02-02 18:53:00
1:53 PM,61.0,30.9,32,30.18,10.0,Variable,6.9,-,N/A,,Clear,0,2013-02-02 19:53:00
2:53 PM,61.0,30.9,32,30.18,10.0,Variable,6.9,-,N/A,,Clear,0,2013-02-02 20:53:00
3:53 PM,61.0,32.0,34,30.19,10.0,NW,6.9,-,N/A,,Clear,320,2013-02-02 21:53:00
4:53 PM,57.9,30.9,36,30.20,10.0,NNW,11.5,19.6,N/A,,Clear,330,2013-02-02 22:53:00
5:53 PM,53.1,32.0,45,30.22,10.0,NNW,3.5,-,N/A,,Clear,340,2013-02-02 23:53:00
6:53 PM,48.0,32.0,54,30.24,10.0,Calm,Calm,-,N/A,,Clear,0,2013-02-03 00:53:00
7:53 PM,42.1,33.1,70,30.25,10.0,WNW,3.5,-,N/A,,Clear,300,2013-02-03 01:53:00
8:53 PM,39.0,33.1,79,30.27,10.0,Calm,Calm,-,N/A,,Clear,0,2013-02-03 02:53:00
9:53 PM,37.0,32.0,82,30.26,10.0,Calm,Calm,-,N/A,,Clear,0,2013-02-03 03:53:00
10:53 PM,34.0,30.9,89,30.25,10.0,Calm,Calm,-,N/A,,Clear,0,2013-02-03 04:53:00
11:53 PM,35.1,30.9,85,30.24,10.0,Calm,Calm,-,N/A,,Clear,0,2013-02-03 05:53:00